createdAt,value
2017-04-18T00:00:39.534Z,0
2017-04-18T00:01:39.566Z,0
2017-04-18T00:02:39.864Z,0
2017-04-18T00:03:39.638Z,0
2017-04-18T00:04:39.966Z,0
2017-04-18T00:05:39.391Z,0
2017-04-18T00:06:39.735Z,0
2017-04-18T00:07:40.071Z,0
2017-04-18T00:08:39.805Z,0
2017-04-18T00:09:40.132Z,0
2017-04-18T00:10:39.868Z,0
2017-04-18T00:11:40.206Z,0
2017-04-18T00:12:40.251Z,0
2017-04-18T00:13:39.966Z,0
2017-04-18T00:14:40.006Z,0
2017-04-18T00:15:40.035Z,0
2017-04-18T00:16:39.765Z,0
2017-04-18T00:17:39.800Z,0
2017-04-18T00:18:40.135Z,0
2017-04-18T00:19:39.871Z,0
2017-04-18T00:20:40.073Z,0
2017-04-18T00:21:39.937Z,0
2017-04-18T00:22:39.969Z,0
2017-04-18T00:23:40.604Z,0
2017-04-18T00:24:40.337Z,0
2017-04-18T00:25:40.064Z,0
2017-04-18T00:26:40.402Z,0
2017-04-18T00:27:40.132Z,0
2017-04-18T00:28:40.852Z,0
2017-04-18T00:29:40.498Z,0
2017-04-18T00:30:40.535Z,0
2017-04-18T00:31:40.575Z,0
2017-04-18T00:32:40.610Z,0
2017-04-18T00:33:40.334Z,0
2017-04-18T00:34:40.373Z,0
2017-04-18T00:35:40.396Z,0
2017-04-18T00:36:40.736Z,0
2017-04-18T00:37:40.776Z,0
2017-04-18T00:38:40.506Z,0
2017-04-18T00:39:40.535Z,0
2017-04-18T00:40:40.570Z,0
2017-04-18T00:41:40.908Z,0
2017-04-18T00:42:40.939Z,0
2017-04-18T00:43:41.276Z,0
2017-04-18T00:44:41.005Z,0
2017-04-18T00:45:41.036Z,0
2017-04-18T00:46:41.070Z,0
2017-04-18T00:47:41.416Z,0
2017-04-18T00:48:41.143Z,0
2017-04-18T00:49:41.172Z,0
2017-04-18T00:50:40.906Z,0
2017-04-18T00:51:40.931Z,0
2017-04-18T00:52:41.268Z,0
2017-04-18T00:53:41.304Z,0
2017-04-18T00:54:41.336Z,0
2017-04-18T00:55:41.381Z,0
2017-04-18T00:56:41.105Z,0
2017-04-18T00:57:41.446Z,0
2017-04-18T00:58:41.171Z,0
2017-04-18T00:59:41.197Z,0
2017-04-18T01:00:41.231Z,0
2017-04-18T01:01:41.565Z,0
2017-04-18T01:02:41.614Z,0
2017-04-18T01:03:42.244Z,0
2017-04-18T01:04:41.375Z,0
2017-04-18T01:05:41.405Z,0
2017-04-18T01:06:41.436Z,0
2017-04-18T01:07:42.078Z,0
2017-04-18T01:08:41.809Z,0
2017-04-18T01:09:41.536Z,0
2017-04-18T01:10:41.878Z,0
2017-04-18T01:11:41.671Z,0
2017-04-18T01:12:42.242Z,0
2017-04-18T01:13:41.666Z,0
2017-04-18T01:14:41.709Z,0
2017-04-18T01:15:42.036Z,0
2017-04-18T01:16:41.769Z,0
2017-04-18T01:17:41.817Z,0
2017-04-18T01:18:42.141Z,0
2017-04-18T01:19:42.174Z,0
2017-04-18T01:20:42.342Z,0
2017-04-18T01:21:42.014Z,0
2017-04-18T01:22:42.566Z,0
2017-04-18T01:23:42.310Z,0
2017-04-18T01:24:42.034Z,0
2017-04-18T01:25:42.068Z,0
2017-04-18T01:26:42.096Z,0
2017-04-18T01:27:42.443Z,0
2017-04-18T01:28:42.779Z,0
2017-04-18T01:29:42.210Z,0
2017-04-18T01:30:42.529Z,0
2017-04-18T01:31:42.604Z,0
2017-04-18T01:32:42.913Z,0
2017-04-18T01:33:42.334Z,0
2017-04-18T01:34:42.366Z,0
2017-04-18T01:35:43.001Z,0
2017-04-18T01:36:42.736Z,0
2017-04-18T01:37:42.973Z,0
2017-04-18T01:38:42.503Z,0
2017-04-18T01:39:42.531Z,0
2017-04-18T01:40:42.872Z,0
2017-04-18T01:41:42.596Z,0
2017-04-18T01:42:42.632Z,0
2017-04-18T01:43:43.280Z,0
2017-04-18T01:44:42.689Z,0
2017-04-18T01:45:42.763Z,0
2017-04-18T01:46:42.760Z,0
2017-04-18T01:47:43.097Z,0
2017-04-18T01:48:43.125Z,0
2017-04-18T01:49:43.158Z,0
2017-04-18T01:50:43.498Z,0
2017-04-18T01:51:43.223Z,0
2017-04-18T01:52:43.267Z,0
2017-04-18T01:53:43.599Z,0
2017-04-18T01:54:43.533Z,0
2017-04-18T01:55:43.060Z,0
2017-04-18T01:56:43.396Z,0
2017-04-18T01:57:43.430Z,0
2017-04-18T01:58:43.761Z,0
2017-04-18T01:59:43.492Z,0
2017-04-18T02:00:43.220Z,0
2017-04-18T02:01:43.258Z,0
2017-04-18T02:02:43.847Z,0
2017-04-18T02:03:43.631Z,0
2017-04-18T02:04:43.655Z,0
2017-04-18T02:05:43.389Z,0
2017-04-18T02:06:43.417Z,0
2017-04-18T02:07:44.063Z,0
2017-04-18T02:08:44.087Z,0
2017-04-18T02:09:43.516Z,0
2017-04-18T02:10:44.024Z,0
2017-04-18T02:11:43.585Z,0
2017-04-18T02:12:43.921Z,0
2017-04-18T02:13:43.961Z,0
2017-04-18T02:14:44.591Z,0
2017-04-18T02:15:43.718Z,0
2017-04-18T02:16:43.749Z,0
2017-04-18T02:17:44.094Z,0
2017-04-18T02:18:44.421Z,0
2017-04-18T02:19:44.154Z,0
2017-04-18T02:20:43.880Z,0
2017-04-18T02:21:44.215Z,0
2017-04-18T02:22:43.941Z,0
2017-04-18T02:23:44.294Z,0
2017-04-18T02:24:44.614Z,0
2017-04-18T02:25:44.351Z,0
2017-04-18T02:26:44.382Z,0
2017-04-18T02:27:44.809Z,0
2017-04-18T02:28:44.753Z,0
2017-04-18T02:29:44.177Z,0
2017-04-18T02:30:44.212Z,0
2017-04-18T02:31:44.556Z,0
2017-04-18T02:32:44.888Z,0
2017-04-18T02:33:45.223Z,0
2017-04-18T02:34:44.642Z,0
2017-04-18T02:35:44.818Z,0
2017-04-18T02:36:44.403Z,0
2017-04-18T02:37:45.051Z,0
2017-04-18T02:38:45.087Z,0
2017-04-18T02:39:44.812Z,0
2017-04-18T02:40:44.545Z,0
2017-04-18T02:41:44.570Z,0
2017-04-18T02:42:45.218Z,0
2017-04-18T02:43:45.268Z,0
2017-04-18T02:44:44.978Z,0
2017-04-18T02:45:44.707Z,0
2017-04-18T02:46:45.037Z,0
2017-04-18T02:47:44.776Z,0
2017-04-18T02:48:44.801Z,0
2017-04-18T02:49:44.867Z,0
2017-04-18T02:50:44.870Z,0
2017-04-18T02:51:44.900Z,0
2017-04-18T02:52:45.541Z,0
2017-04-18T02:53:44.970Z,0
2017-04-18T02:54:45.006Z,0
2017-04-18T02:55:45.040Z,0
2017-04-18T02:56:45.063Z,0
2017-04-18T02:57:45.404Z,0
2017-04-18T02:58:45.742Z,0
2017-04-18T02:59:45.164Z,0
2017-04-18T03:00:45.197Z,0
2017-04-18T03:01:45.231Z,0
2017-04-18T03:02:45.572Z,0
2017-04-18T03:03:45.610Z,0
2017-04-18T03:04:45.635Z,0
2017-04-18T03:05:45.671Z,0
2017-04-18T03:06:45.698Z,0
2017-04-18T03:07:46.039Z,0
2017-04-18T03:08:46.372Z,0
2017-04-18T03:09:45.795Z,0
2017-04-18T03:10:45.529Z,0
2017-04-18T03:11:45.571Z,0
2017-04-18T03:12:45.903Z,0
2017-04-18T03:13:45.632Z,0
2017-04-18T03:14:45.658Z,0
2017-04-18T03:15:45.693Z,0
2017-04-18T03:16:45.798Z,0
2017-04-18T03:17:46.662Z,0
2017-04-18T03:18:46.097Z,0
2017-04-18T03:19:45.821Z,0
2017-04-18T03:20:45.857Z,0
2017-04-18T03:21:46.185Z,0
2017-04-18T03:22:45.920Z,0
2017-04-18T03:23:46.567Z,0
2017-04-18T03:24:46.588Z,0
2017-04-18T03:25:46.326Z,0
2017-04-18T03:26:46.664Z,0
2017-04-18T03:27:46.426Z,0
2017-04-18T03:28:46.433Z,0
2017-04-18T03:29:46.150Z,0
2017-04-18T03:30:46.191Z,0
2017-04-18T03:31:46.518Z,0
2017-04-18T03:32:46.258Z,0
2017-04-18T03:33:46.589Z,0
2017-04-18T03:34:46.626Z,0
2017-04-18T03:35:46.378Z,0
2017-04-18T03:36:46.685Z,0
2017-04-18T03:37:46.715Z,0
2017-04-18T03:38:46.752Z,0
2017-04-18T03:39:46.482Z,4
2017-04-18T03:40:46.561Z,4
2017-04-18T03:41:46.571Z,4
2017-04-18T03:42:46.587Z,0
2017-04-18T03:43:47.223Z,4
2017-04-18T03:44:47.243Z,4
2017-04-18T03:45:46.983Z,4
2017-04-18T03:46:47.010Z,4
2017-04-18T03:47:47.050Z,4
2017-04-18T03:48:47.080Z,4
2017-04-18T03:49:47.118Z,4
2017-04-18T03:50:46.837Z,4
2017-04-18T03:51:46.880Z,4
2017-04-18T03:52:46.901Z,4
2017-04-18T03:53:47.238Z,4
2017-04-18T03:54:47.287Z,4
2017-04-18T03:55:47.007Z,4
2017-04-18T03:56:47.044Z,4
2017-04-18T03:57:47.388Z,8
2017-04-18T03:58:47.705Z,4
2017-04-18T03:59:47.439Z,8
2017-04-18T04:00:47.468Z,12
2017-04-18T04:01:47.234Z,12
2017-04-18T04:02:47.539Z,16
2017-04-18T04:03:47.566Z,16
2017-04-18T04:04:47.310Z,16
2017-04-18T04:05:47.333Z,20
2017-04-18T04:06:47.674Z,24
2017-04-18T04:07:47.702Z,32
2017-04-18T04:08:47.433Z,40
2017-04-18T04:09:47.462Z,48
2017-04-18T04:10:47.803Z,64
2017-04-18T04:11:47.829Z,76
2017-04-18T04:12:48.182Z,88
2017-04-18T04:13:48.209Z,108
2017-04-18T04:14:47.630Z,120
2017-04-18T04:15:47.685Z,140
2017-04-18T04:16:47.693Z,168
2017-04-18T04:17:47.729Z,172
2017-04-18T04:18:47.765Z,184
2017-04-18T04:19:48.091Z,200
2017-04-18T04:20:47.829Z,228
2017-04-18T04:21:48.173Z,256
2017-04-18T04:22:48.501Z,284
2017-04-18T04:23:48.264Z,292
2017-04-18T04:24:48.533Z,276
2017-04-18T04:25:48.590Z,312
2017-04-18T04:26:48.333Z,340
2017-04-18T04:27:48.356Z,364
2017-04-18T04:28:48.404Z,364
2017-04-18T04:29:48.118Z,380
2017-04-18T04:30:48.155Z,428
2017-04-18T04:31:48.190Z,464
2017-04-18T04:32:48.828Z,460
2017-04-18T04:33:48.563Z,472
2017-04-18T04:34:48.579Z,456
2017-04-18T04:35:48.923Z,516
2017-04-18T04:36:48.350Z,508
2017-04-18T04:37:48.691Z,564
2017-04-18T04:38:48.714Z,596
2017-04-18T04:39:49.054Z,584
2017-04-18T04:40:48.474Z,468
2017-04-18T04:41:48.515Z,428
2017-04-18T04:42:48.547Z,440
2017-04-18T04:43:48.882Z,440
2017-04-18T04:44:48.611Z,404
2017-04-18T04:45:48.643Z,460
2017-04-18T04:46:48.983Z,588
2017-04-18T04:47:49.318Z,688
2017-04-18T04:48:49.060Z,780
2017-04-18T04:49:48.777Z,704
2017-04-18T04:50:48.806Z,684
2017-04-18T04:51:48.841Z,780
2017-04-18T04:52:49.177Z,864
2017-04-18T04:53:49.210Z,808
2017-04-18T04:54:49.239Z,796
2017-04-18T04:55:48.969Z,876
2017-04-18T04:56:49.012Z,796
2017-04-18T04:57:49.341Z,796
2017-04-18T04:58:49.376Z,844
2017-04-18T04:59:49.416Z,1008
2017-04-18T05:00:49.139Z,1112
2017-04-18T05:01:49.477Z,1192
2017-04-18T05:02:49.508Z,1232
2017-04-18T05:03:49.240Z,1256
2017-04-18T05:04:49.281Z,1204
2017-04-18T05:05:49.618Z,1192
2017-04-18T05:06:49.638Z,1108
2017-04-18T05:07:49.670Z,1112
2017-04-18T05:08:50.015Z,1000
2017-04-18T05:09:49.735Z,1024
2017-04-18T05:10:49.469Z,964
2017-04-18T05:11:49.810Z,764
2017-04-18T05:12:49.545Z,1020
2017-04-18T05:13:49.575Z,1116
2017-04-18T05:14:49.902Z,888
2017-04-18T05:15:49.938Z,844
2017-04-18T05:16:49.668Z,756
2017-04-18T05:17:49.706Z,688
2017-04-18T05:18:50.339Z,676
2017-04-18T05:19:49.773Z,628
2017-04-18T05:20:50.098Z,588
2017-04-18T05:21:50.433Z,576
2017-04-18T05:22:49.866Z,608
2017-04-18T05:23:50.208Z,624
2017-04-18T05:24:49.930Z,672
2017-04-18T05:25:49.989Z,604
2017-04-18T05:26:50.304Z,528
2017-04-18T05:27:50.805Z,472
2017-04-18T05:28:50.379Z,456
2017-04-18T05:29:50.400Z,452
2017-04-18T05:30:50.127Z,416
2017-04-18T05:31:50.163Z,424
2017-04-18T05:32:50.202Z,500
2017-04-18T05:33:50.835Z,632
2017-04-18T05:34:50.560Z,660
2017-04-18T05:35:50.399Z,640
2017-04-18T05:36:50.638Z,672
2017-04-18T05:37:50.667Z,692
2017-04-18T05:38:51.006Z,728
2017-04-18T05:39:50.442Z,720
2017-04-18T05:40:50.761Z,632
2017-04-18T05:41:50.812Z,708
2017-04-18T05:42:51.129Z,704
2017-04-18T05:43:51.465Z,712
2017-04-18T05:44:50.898Z,840
2017-04-18T05:45:51.233Z,1008
2017-04-18T05:46:50.657Z,1092
2017-04-18T05:47:51.018Z,1084
2017-04-18T05:48:50.730Z,1196
2017-04-18T05:49:51.062Z,1300
2017-04-18T05:50:50.789Z,1256
2017-04-18T05:51:50.843Z,1224
2017-04-18T05:52:51.482Z,1172
2017-04-18T05:53:50.892Z,1080
2017-04-18T05:54:50.930Z,996
2017-04-18T05:55:50.985Z,828
2017-04-18T05:56:51.620Z,912
2017-04-18T05:57:51.325Z,924
2017-04-18T05:58:51.108Z,860
2017-04-18T05:59:51.404Z,736
2017-04-18T06:00:51.119Z,820
2017-04-18T06:01:51.461Z,748
2017-04-18T06:02:51.502Z,700
2017-04-18T06:03:51.534Z,696
2017-04-18T06:04:51.270Z,752
2017-04-18T06:05:51.594Z,868
2017-04-18T06:06:51.489Z,1000
2017-04-18T06:07:51.764Z,1020
2017-04-18T06:08:51.713Z,1096
2017-04-18T06:09:51.426Z,1328
2017-04-18T06:10:51.467Z,1500
2017-04-18T06:11:52.099Z,1636
2017-04-18T06:12:51.831Z,1588
2017-04-18T06:13:51.875Z,1944
2017-04-18T06:14:51.591Z,2012
2017-04-18T06:15:51.624Z,2212
2017-04-18T06:16:51.959Z,2796
2017-04-18T06:17:51.995Z,3088
2017-04-18T06:18:52.333Z,3528
2017-04-18T06:19:52.055Z,3800
2017-04-18T06:20:52.092Z,3592
2017-04-18T06:21:52.428Z,3688
2017-04-18T06:22:52.154Z,3436
2017-04-18T06:23:52.200Z,3480
2017-04-18T06:24:51.924Z,3688
2017-04-18T06:25:52.258Z,3276
2017-04-18T06:26:52.283Z,3200
2017-04-18T06:27:52.633Z,3492
2017-04-18T06:28:52.367Z,3040
2017-04-18T06:29:52.093Z,3032
2017-04-18T06:30:52.429Z,2376
2017-04-18T06:31:52.464Z,2992
2017-04-18T06:32:52.497Z,2948
2017-04-18T06:33:52.225Z,3416
2017-04-18T06:34:52.558Z,2616
2017-04-18T06:35:52.593Z,2568
2017-04-18T06:36:52.630Z,2316
2017-04-18T06:37:53.265Z,2128
2017-04-18T06:38:52.707Z,2428
2017-04-18T06:39:52.431Z,2808
2017-04-18T06:40:52.461Z,2968
2017-04-18T06:41:52.804Z,2828
2017-04-18T06:42:53.131Z,2652
2017-04-18T06:43:53.166Z,2236
2017-04-18T06:44:52.600Z,2096
2017-04-18T06:45:52.926Z,2592
2017-04-18T06:46:52.974Z,2300
2017-04-18T06:47:53.011Z,2252
2017-04-18T06:48:52.743Z,2752
2017-04-18T06:49:52.767Z,2296
2017-04-18T06:50:53.108Z,2228
2017-04-18T06:51:52.833Z,2152
2017-04-18T06:52:52.863Z,1960
2017-04-18T06:53:52.913Z,1480
2017-04-18T06:54:53.074Z,1264
2017-04-18T06:55:52.971Z,1248
2017-04-18T06:56:53.607Z,1240
2017-04-18T06:57:53.639Z,1036
2017-04-18T06:58:53.375Z,1028
2017-04-18T06:59:53.105Z,1140
2017-04-18T07:00:53.434Z,1336
2017-04-18T07:01:53.474Z,1576
2017-04-18T07:02:53.818Z,1724
2017-04-18T07:03:53.546Z,1736
2017-04-18T07:04:53.574Z,2332
2017-04-18T07:05:53.619Z,3212
2017-04-18T07:06:53.336Z,4160
2017-04-18T07:07:53.680Z,5104
2017-04-18T07:08:53.410Z,5864
2017-04-18T07:09:53.435Z,6816
2017-04-18T07:10:53.775Z,9848
2017-04-18T07:11:53.508Z,6612
2017-04-18T07:12:53.540Z,6772
2017-04-18T07:13:53.575Z,7668
2017-04-18T07:14:53.908Z,9584
2017-04-18T07:15:53.635Z,13036
2017-04-18T07:16:53.674Z,24384
2017-04-18T07:17:54.016Z,38848
2017-04-18T07:18:54.052Z,45664
2017-04-18T07:19:53.784Z,26592
2017-04-18T07:20:53.813Z,37344
2017-04-18T07:21:53.857Z,14704
2017-04-18T07:22:53.890Z,13384
2017-04-18T07:23:53.932Z,9964
2017-04-18T07:24:54.569Z,7404
2017-04-18T07:25:53.998Z,7036
2017-04-18T07:26:54.148Z,7128
2017-04-18T07:27:54.581Z,6664
2017-04-18T07:28:54.412Z,7960
2017-04-18T07:29:54.441Z,8508
2017-04-18T07:30:54.173Z,8312
2017-04-18T07:31:54.231Z,7752
2017-04-18T07:32:54.247Z,7936
2017-04-18T07:33:54.286Z,7812
2017-04-18T07:34:54.319Z,7988
2017-04-18T07:35:54.361Z,8256
2017-04-18T07:36:54.392Z,8476
2017-04-18T07:37:54.432Z,7528
2017-04-18T07:38:54.465Z,6544
2017-04-18T07:39:54.801Z,5976
2017-04-18T07:40:54.842Z,5628
2017-04-18T07:41:54.571Z,6160
2017-04-18T07:42:54.606Z,7352
2017-04-18T07:43:54.869Z,6852
2017-04-18T07:44:54.979Z,6072
2017-04-18T07:45:54.713Z,6352
2017-04-18T07:46:54.765Z,8948
2017-04-18T07:47:54.787Z,12120
2017-04-18T07:48:55.424Z,13384
2017-04-18T07:49:54.850Z,13668
2017-04-18T07:50:54.892Z,13088
2017-04-18T07:51:54.925Z,9900
2017-04-18T07:52:55.279Z,8264
2017-04-18T07:53:54.999Z,7912
2017-04-18T07:54:55.344Z,7252
2017-04-18T07:55:55.065Z,5376
2017-04-18T07:56:55.397Z,4336
2017-04-18T07:57:55.168Z,3660
2017-04-18T07:58:55.173Z,3376
2017-04-18T07:59:55.217Z,3648
2017-04-18T08:00:55.254Z,4296
2017-04-18T08:01:55.586Z,5756
2017-04-18T08:02:55.924Z,6728
2017-04-18T08:03:55.655Z,6544
2017-04-18T08:04:55.381Z,7512
2017-04-18T08:05:55.428Z,7572
2017-04-18T08:06:55.758Z,6116
2017-04-18T08:07:55.489Z,6508
2017-04-18T08:08:55.527Z,7792
2017-04-18T08:09:55.662Z,7988
2017-04-18T08:10:55.596Z,7324
2017-04-18T08:11:55.625Z,6196
2017-04-18T08:12:55.669Z,5384
2017-04-18T08:13:55.706Z,5228
2017-04-18T08:14:55.743Z,4992
2017-04-18T08:15:56.368Z,4444
2017-04-18T08:16:55.801Z,4104
2017-04-18T08:17:55.841Z,3308
2017-04-18T08:18:56.177Z,3156
2017-04-18T08:19:55.913Z,3424
2017-04-18T08:20:55.947Z,3464
2017-04-18T08:21:56.285Z,3224
2017-04-18T08:22:56.015Z,3336
2017-04-18T08:23:56.355Z,3624
2017-04-18T08:24:56.081Z,3300
2017-04-18T08:25:56.119Z,3120
2017-04-18T08:26:56.153Z,2940
2017-04-18T08:27:56.799Z,2536
2017-04-18T08:28:56.241Z,2252
2017-04-18T08:29:56.561Z,2084
2017-04-18T08:30:56.298Z,2260
2017-04-18T08:31:56.321Z,2360
2017-04-18T08:32:56.356Z,2436
2017-04-18T08:33:56.502Z,2592
2017-04-18T08:34:56.428Z,2796
2017-04-18T08:35:56.770Z,2716
2017-04-18T08:36:56.657Z,2736
2017-04-18T08:37:56.526Z,2800
2017-04-18T08:38:56.570Z,3040
2017-04-18T08:39:56.903Z,3396
2017-04-18T08:40:56.633Z,3648
2017-04-18T08:41:56.670Z,3592
2017-04-18T08:42:56.694Z,3344
2017-04-18T08:43:57.036Z,3468
2017-04-18T08:44:56.762Z,3648
2017-04-18T08:45:56.890Z,4108
2017-04-18T08:46:56.838Z,4076
2017-04-18T08:47:57.172Z,3068
2017-04-18T08:48:56.907Z,3112
2017-04-18T08:49:56.943Z,3624
2017-04-18T08:50:57.270Z,3776
2017-04-18T08:51:57.006Z,3672
2017-04-18T08:52:57.040Z,3892
2017-04-18T08:53:57.077Z,3920
2017-04-18T08:54:57.216Z,4416
2017-04-18T08:55:57.147Z,4648
2017-04-18T08:56:57.478Z,4788
2017-04-18T08:57:57.212Z,4872
2017-04-18T08:58:57.559Z,5368
2017-04-18T08:59:57.579Z,6060
2017-04-18T09:00:57.306Z,5600
2017-04-18T09:01:57.343Z,5220
2017-04-18T09:02:57.688Z,5456
2017-04-18T09:03:57.721Z,7116
2017-04-18T09:04:58.358Z,9392
2017-04-18T09:05:57.480Z,11752
2017-04-18T09:06:57.514Z,16160
2017-04-18T09:07:58.154Z,9684
2017-04-18T09:08:57.580Z,8508
2017-04-18T09:09:57.922Z,7292
2017-04-18T09:10:57.958Z,5580
2017-04-18T09:11:57.698Z,5428
2017-04-18T09:12:58.024Z,7320
2017-04-18T09:13:58.057Z,8696
2017-04-18T09:14:57.794Z,8448
2017-04-18T09:15:58.015Z,7912
2017-04-18T09:16:57.864Z,7248
2017-04-18T09:17:58.200Z,7280
2017-04-18T09:18:57.939Z,8228
2017-04-18T09:19:58.278Z,9420
2017-04-18T09:20:58.002Z,9832
2017-04-18T09:21:58.734Z,10012
2017-04-18T09:22:58.072Z,10872
2017-04-18T09:23:58.413Z,13008
2017-04-18T09:24:58.142Z,15804
2017-04-18T09:25:58.481Z,21024
2017-04-18T09:26:58.213Z,19168
2017-04-18T09:27:58.244Z,24128
2017-04-18T09:28:58.597Z,34016
2017-04-18T09:29:58.322Z,23584
2017-04-18T09:30:58.438Z,15736
2017-04-18T09:31:58.700Z,17248
2017-04-18T09:32:58.428Z,12368
2017-04-18T09:33:59.075Z,11780
2017-04-18T09:34:58.503Z,11912
2017-04-18T09:35:58.540Z,9360
2017-04-18T09:36:58.573Z,9104
2017-04-18T09:37:58.613Z,9568
2017-04-18T09:38:58.955Z,9704
2017-04-18T09:39:58.684Z,9224
2017-04-18T09:40:58.719Z,8504
2017-04-18T09:41:58.757Z,7580
2017-04-18T09:42:58.793Z,6468
2017-04-18T09:43:58.829Z,5656
2017-04-18T09:44:58.869Z,5156
2017-04-18T09:45:58.905Z,5004
2017-04-18T09:46:59.240Z,5268
2017-04-18T09:47:59.276Z,5860
2017-04-18T09:48:59.047Z,6552
2017-04-18T09:49:59.343Z,7084
2017-04-18T09:50:59.078Z,6824
2017-04-18T09:51:59.112Z,6964
2017-04-18T09:52:59.154Z,6616
2017-04-18T09:54:00.098Z,6296
2017-04-18T09:54:59.222Z,6444
2017-04-18T09:55:59.260Z,6924
2017-04-18T09:56:59.670Z,7488
2017-04-18T09:57:59.331Z,8212
2017-04-18T09:58:59.825Z,8880
2017-04-18T09:59:59.709Z,10168
2017-04-18T10:00:59.738Z,11984
2017-04-18T10:01:59.468Z,15512
2017-04-18T10:02:59.811Z,27776
2017-04-18T10:03:59.545Z,14580
2017-04-18T10:04:59.902Z,15888
2017-04-18T10:05:59.609Z,16048
2017-04-18T10:07:00.146Z,21792
2017-04-18T10:07:59.989Z,33504
2017-04-18T10:08:59.725Z,47168
2017-04-18T10:10:00.439Z,19264
2017-04-18T10:10:59.810Z,17216
2017-04-18T10:11:59.829Z,18752
2017-04-18T10:13:00.165Z,21920
2017-04-18T10:14:00.200Z,23104
2017-04-18T10:14:59.938Z,18976
2017-04-18T10:15:59.972Z,20288
2017-04-18T10:17:00.020Z,26880
2017-04-18T10:18:00.375Z,31488
2017-04-18T10:19:00.394Z,15912
2017-04-18T10:20:00.434Z,16284
2017-04-18T10:21:00.762Z,14592
2017-04-18T10:22:00.806Z,12220
2017-04-18T10:23:00.536Z,11020
2017-04-18T10:24:00.878Z,9284
2017-04-18T10:25:00.615Z,8044
2017-04-18T10:26:00.349Z,8152
2017-04-18T10:27:00.691Z,8744
2017-04-18T10:28:00.724Z,8580
2017-04-18T10:29:00.765Z,8092
2017-04-18T10:30:00.838Z,6960
2017-04-18T10:31:00.571Z,5092
2017-04-18T10:32:00.570Z,3516
2017-04-18T10:33:00.913Z,2952
2017-04-18T10:34:00.639Z,2620
2017-04-18T10:35:00.680Z,2652
2017-04-18T10:36:00.714Z,2984
2017-04-18T10:37:00.756Z,3488
2017-04-18T10:38:00.788Z,3916
2017-04-18T10:39:00.829Z,4108
2017-04-18T10:40:00.872Z,4152
2017-04-18T10:41:01.203Z,4316
2017-04-18T10:42:00.936Z,4840
2017-04-18T10:43:00.987Z,5412
2017-04-18T10:44:01.312Z,5408
2017-04-18T10:45:01.343Z,4816
2017-04-18T10:46:01.382Z,4864
2017-04-18T10:47:01.123Z,5044
2017-04-18T10:48:01.454Z,5112
2017-04-18T10:49:01.494Z,5484
2017-04-18T10:50:01.525Z,5896
2017-04-18T10:51:01.774Z,5476
2017-04-18T10:52:01.599Z,3804
2017-04-18T10:53:01.638Z,2160
2017-04-18T10:54:01.663Z,1116
2017-04-18T10:55:01.404Z,860
2017-04-18T10:56:01.433Z,928
2017-04-18T10:57:01.770Z,1072
2017-04-18T10:58:01.500Z,1424
2017-04-18T10:59:02.148Z,2160
2017-04-18T11:00:02.138Z,2644
2017-04-18T11:01:01.606Z,3188
2017-04-18T11:02:01.946Z,3760
2017-04-18T11:03:02.289Z,3300
2017-04-18T11:04:01.714Z,3400
2017-04-18T11:05:02.353Z,3560
2017-04-18T11:06:02.086Z,3332
2017-04-18T11:07:01.818Z,4088
2017-04-18T11:08:01.936Z,2712
2017-04-18T11:09:01.882Z,2772
2017-04-18T11:10:02.227Z,3664
2017-04-18T11:11:02.271Z,4700
2017-04-18T11:12:01.988Z,4144
2017-04-18T11:13:02.028Z,3344
2017-04-18T11:14:02.364Z,3992
2017-04-18T11:15:02.100Z,3820
2017-04-18T11:16:02.431Z,2956
2017-04-18T11:17:02.465Z,2596
2017-04-18T11:18:02.518Z,2952
2017-04-18T11:19:02.842Z,3540
2017-04-18T11:20:02.276Z,3716
2017-04-18T11:21:02.301Z,4456
2017-04-18T11:22:02.329Z,5144
2017-04-18T11:23:02.669Z,4976
2017-04-18T11:24:02.402Z,4172
2017-04-18T11:25:02.431Z,3824
2017-04-18T11:26:02.787Z,3572
2017-04-18T11:27:02.503Z,3540
2017-04-18T11:28:02.544Z,3788
2017-04-18T11:29:02.571Z,4092
2017-04-18T11:30:02.902Z,4100
2017-04-18T11:31:02.642Z,6016
2017-04-18T11:32:02.677Z,7532
2017-04-18T11:33:02.708Z,10268
2017-04-18T11:34:03.598Z,12940
2017-04-18T11:35:03.077Z,14712
2017-04-18T11:36:02.805Z,14296
2017-04-18T11:37:02.842Z,12000
2017-04-18T11:38:03.502Z,10204
2017-04-18T11:39:02.910Z,8924
2017-04-18T11:40:02.946Z,7644
2017-04-18T11:41:02.976Z,5792
2017-04-18T11:42:03.014Z,6512
2017-04-18T11:43:03.356Z,5508
2017-04-18T11:44:03.407Z,4800
2017-04-18T11:45:03.728Z,4100
2017-04-18T11:46:03.490Z,3400
2017-04-18T11:47:03.794Z,3124
2017-04-18T11:48:03.530Z,2968
2017-04-18T11:49:03.861Z,2964
2017-04-18T11:50:03.630Z,3428
2017-04-18T11:51:03.492Z,4032
2017-04-18T11:52:03.717Z,4616
2017-04-18T11:53:03.396Z,5792
2017-04-18T11:54:04.035Z,6960
2017-04-18T11:55:04.085Z,7036
2017-04-18T11:56:03.500Z,5740
2017-04-18T11:57:03.535Z,4268
2017-04-18T11:58:03.566Z,3216
2017-04-18T11:59:03.606Z,2772
2017-04-18T12:00:03.652Z,2876
2017-04-18T12:01:03.676Z,2960
2017-04-18T12:02:04.012Z,3260
2017-04-18T12:03:03.964Z,4024
2017-04-18T12:04:04.084Z,5272
2017-04-18T12:05:04.111Z,6668
2017-04-18T12:06:04.068Z,9040
2017-04-18T12:07:04.189Z,10964
2017-04-18T12:08:03.915Z,11432
2017-04-18T12:09:04.257Z,10460
2017-04-18T12:10:03.986Z,7984
2017-04-18T12:11:04.023Z,5580
2017-04-18T12:12:04.054Z,3736
2017-04-18T12:13:04.094Z,2340
2017-04-18T12:14:04.423Z,1532
2017-04-18T12:15:04.159Z,1440
2017-04-18T12:16:04.199Z,1528
2017-04-18T12:17:04.228Z,1688
2017-04-18T12:18:04.267Z,1936
2017-04-18T12:19:04.304Z,2268
2017-04-18T12:20:04.640Z,2788
2017-04-18T12:21:04.368Z,3628
2017-04-18T12:22:04.710Z,4884
2017-04-18T12:23:04.437Z,6316
2017-04-18T12:24:04.482Z,7464
2017-04-18T12:25:04.858Z,7616
2017-04-18T12:26:04.535Z,7016
2017-04-18T12:27:04.878Z,6368
2017-04-18T12:28:04.615Z,6220
2017-04-18T12:29:04.642Z,6236
2017-04-18T12:30:04.988Z,6332
2017-04-18T12:31:04.713Z,6488
2017-04-18T12:32:04.743Z,6804
2017-04-18T12:33:04.789Z,7100
2017-04-18T12:34:04.815Z,6988
2017-04-18T12:35:05.152Z,6712
2017-04-18T12:36:05.332Z,6748
2017-04-18T12:37:04.931Z,7256
2017-04-18T12:38:04.957Z,7832
2017-04-18T12:39:04.985Z,7984
2017-04-18T12:40:05.025Z,7768
2017-04-18T12:41:05.374Z,7564
2017-04-18T12:42:05.409Z,7804
2017-04-18T12:43:05.129Z,8176
2017-04-18T12:44:05.159Z,8720
2017-04-18T12:45:05.297Z,9452
2017-04-18T12:46:05.843Z,10212
2017-04-18T12:47:05.893Z,10628
2017-04-18T12:48:05.334Z,11036
2017-04-18T12:49:05.649Z,10920
2017-04-18T12:50:05.690Z,10476
2017-04-18T12:51:05.719Z,9468
2017-04-18T12:52:05.445Z,8328
2017-04-18T12:53:05.480Z,7668
2017-04-18T12:54:05.615Z,8740
2017-04-18T12:55:06.053Z,11100
2017-04-18T12:56:05.584Z,12436
2017-04-18T12:57:05.621Z,12688
2017-04-18T12:58:05.656Z,12548
2017-04-18T12:59:06.004Z,11940
2017-04-18T13:00:05.726Z,11516
2017-04-18T13:01:06.071Z,11496
2017-04-18T13:02:05.795Z,12480
2017-04-18T13:03:05.839Z,12996
2017-04-18T13:04:05.867Z,13140
2017-04-18T13:05:05.908Z,12280
2017-04-18T13:06:05.944Z,11124
2017-04-18T13:07:05.980Z,10468
2017-04-18T13:08:06.012Z,10096
2017-04-18T13:09:06.057Z,9780
2017-04-18T13:10:06.103Z,9024
2017-04-18T13:11:06.733Z,9816
2017-04-18T13:12:06.159Z,10000
2017-04-18T13:13:06.371Z,9716
2017-04-18T13:14:06.231Z,8876
2017-04-18T13:15:06.274Z,7300
2017-04-18T13:16:06.609Z,6188
2017-04-18T13:17:06.644Z,5684
2017-04-18T13:18:06.391Z,5632
2017-04-18T13:19:06.719Z,5644
2017-04-18T13:20:06.757Z,5392
2017-04-18T13:21:06.486Z,5404
2017-04-18T13:22:06.827Z,5756
2017-04-18T13:23:06.570Z,5740
2017-04-18T13:24:06.892Z,4732
2017-04-18T13:25:06.628Z,4296
2017-04-18T13:26:06.970Z,4584
2017-04-18T13:27:07.002Z,4640
2017-04-18T13:28:06.748Z,4656
2017-04-18T13:29:06.769Z,4628
2017-04-18T13:30:07.115Z,4720
2017-04-18T13:31:06.847Z,4756
2017-04-18T13:32:07.184Z,4660
2017-04-18T13:33:06.923Z,4560
2017-04-18T13:34:06.960Z,4616
2017-04-18T13:35:07.288Z,5008
2017-04-18T13:36:07.028Z,5300
2017-04-18T13:37:07.070Z,5528
2017-04-18T13:38:07.100Z,5604
2017-04-18T13:39:07.131Z,6240
2017-04-18T13:40:07.838Z,7356
2017-04-18T13:41:07.443Z,8708
2017-04-18T13:42:07.553Z,9652
2017-04-18T13:43:07.275Z,10404
2017-04-18T13:44:07.311Z,10960